sensor_id;sensor_type;location;lat;lon;timestamp;temperature;humidity
19258;DHT22;9763;48.780;9.212;2022-08-05T00:03:01;30.50;39.70
19258;DHT22;9763;48.780;9.212;2022-08-05T00:06:27;30.50;39.90
19258;DHT22;9763;48.780;9.212;2022-08-05T00:09:56;30.50;39.90
19258;DHT22;9763;48.780;9.212;2022-08-05T00:13:20;30.50;39.90
19258;DHT22;9763;48.780;9.212;2022-08-05T00:17:00;30.40;39.90
19258;DHT22;9763;48.780;9.212;2022-08-05T00:20:25;30.40;40.00
19258;DHT22;9763;48.780;9.212;2022-08-05T00:23:50;30.40;40.20
19258;DHT22;9763;48.780;9.212;2022-08-05T00:27:32;30.30;40.20
19258;DHT22;9763;48.780;9.212;2022-08-05T00:30:57;30.30;40.30
19258;DHT22;9763;48.780;9.212;2022-08-05T00:34:25;30.30;40.20
19258;DHT22;9763;48.780;9.212;2022-08-05T00:38:10;30.30;40.30
19258;DHT22;9763;48.780;9.212;2022-08-05T00:41:36;30.20;40.30
19258;DHT22;9763;48.780;9.212;2022-08-05T00:45:16;30.20;40.20
19258;DHT22;9763;48.780;9.212;2022-08-05T00:48:59;30.20;40.30
19258;DHT22;9763;48.780;9.212;2022-08-05T00:52:23;30.20;40.30
19258;DHT22;9763;48.780;9.212;2022-08-05T00:55:51;30.10;40.50
19258;DHT22;9763;48.780;9.212;2022-08-05T00:59:14;30.00;40.60
19258;DHT22;9763;48.780;9.212;2022-08-05T01:02:38;29.90;40.70
19258;DHT22;9763;48.780;9.212;2022-08-05T01:06:01;29.80;40.60
19258;DHT22;9763;48.780;9.212;2022-08-05T01:09:26;29.70;40.70
19258;DHT22;9763;48.780;9.212;2022-08-05T01:13:03;29.60;40.60
19258;DHT22;9763;48.780;9.212;2022-08-05T01:16:47;29.60;40.50
19258;DHT22;9763;48.780;9.212;2022-08-05T01:20:36;29.70;40.30
19258;DHT22;9763;48.780;9.212;2022-08-05T01:24:17;29.70;40.20
19258;DHT22;9763;48.780;9.212;2022-08-05T01:28:16;29.70;40.10
19258;DHT22;9763;48.780;9.212;2022-08-05T01:31:48;29.70;40.10
19258;DHT22;9763;48.780;9.212;2022-08-05T01:35:18;29.70;40.00
19258;DHT22;9763;48.780;9.212;2022-08-05T01:39:08;29.70;40.20
19258;DHT22;9763;48.780;9.212;2022-08-05T01:42:35;29.70;40.20
19258;DHT22;9763;48.780;9.212;2022-08-05T01:46:03;29.60;40.30
19258;DHT22;9763;48.780;9.212;2022-08-05T01:49:39;29.60;40.40
19258;DHT22;9763;48.780;9.212;2022-08-05T01:53:24;29.50;40.60
19258;DHT22;9763;48.780;9.212;2022-08-05T01:57:10;29.50;40.70
19258;DHT22;9763;48.780;9.212;2022-08-05T02:05:06;29.30;41.10
19258;DHT22;9763;48.780;9.212;2022-08-05T02:08:34;29.30;41.40
19258;DHT22;9763;48.780;9.212;2022-08-05T02:12:19;29.20;41.30
19258;DHT22;9763;48.780;9.212;2022-08-05T02:15:49;29.20;41.50
19258;DHT22;9763;48.780;9.212;2022-08-05T02:19:23;29.20;41.60
19258;DHT22;9763;48.780;9.212;2022-08-05T02:22:59;29.10;41.80
19258;DHT22;9763;48.780;9.212;2022-08-05T02:26:31;29.10;41.80
19258;DHT22;9763;48.780;9.212;2022-08-05T02:30:02;29.10;42.00
19258;DHT22;9763;48.780;9.212;2022-08-05T02:33:30;29.10;41.90
19258;DHT22;9763;48.780;9.212;2022-08-05T02:37:02;29.10;42.00
19258;DHT22;9763;48.780;9.212;2022-08-05T02:40:32;29.00;42.10
19258;DHT22;9763;48.780;9.212;2022-08-05T02:43:57;29.00;42.10
19258;DHT22;9763;48.780;9.212;2022-08-05T02:47:33;29.00;42.20
19258;DHT22;9763;48.780;9.212;2022-08-05T02:51:19;29.00;42.20
19258;DHT22;9763;48.780;9.212;2022-08-05T02:55:04;29.00;42.30
19258;DHT22;9763;48.780;9.212;2022-08-05T02:58:35;28.90;42.30
19258;DHT22;9763;48.780;9.212;2022-08-05T03:02:05;28.90;42.60
19258;DHT22;9763;48.780;9.212;2022-08-05T03:05:32;28.90;42.70
19258;DHT22;9763;48.780;9.212;2022-08-05T03:09:16;28.80;42.60
19258;DHT22;9763;48.780;9.212;2022-08-05T03:12:59;28.80;42.70
19258;DHT22;9763;48.780;9.212;2022-08-05T03:16:23;28.80;42.80
19258;DHT22;9763;48.780;9.212;2022-08-05T03:19:49;28.70;42.50
19258;DHT22;9763;48.780;9.212;2022-08-05T03:23:12;28.80;43.00
19258;DHT22;9763;48.780;9.212;2022-08-05T03:26:37;28.70;43.30
19258;DHT22;9763;48.780;9.212;2022-08-05T03:30:01;28.70;43.40
19258;DHT22;9763;48.780;9.212;2022-08-05T03:33:31;28.60;43.40
19258;DHT22;9763;48.780;9.212;2022-08-05T03:37:14;28.60;43.00
19258;DHT22;9763;48.780;9.212;2022-08-05T03:40:39;28.60;43.50
19258;DHT22;9763;48.780;9.212;2022-08-05T03:44:08;28.70;43.60
19258;DHT22;9763;48.780;9.212;2022-08-05T03:47:33;28.50;43.50
19258;DHT22;9763;48.780;9.212;2022-08-05T03:51:09;28.50;43.60
19258;DHT22;9763;48.780;9.212;2022-08-05T03:54:59;28.50;43.60
19258;DHT22;9763;48.780;9.212;2022-08-05T03:58:47;28.50;43.80
19258;DHT22;9763;48.780;9.212;2022-08-05T04:02:14;28.50;43.60
19258;DHT22;9763;48.780;9.212;2022-08-05T04:06:01;28.50;43.70
19258;DHT22;9763;48.780;9.212;2022-08-05T04:09:31;28.50;43.70
19258;DHT22;9763;48.780;9.212;2022-08-05T04:12:57;28.40;43.90
19258;DHT22;9763;48.780;9.212;2022-08-05T04:16:25;28.40;43.70
19258;DHT22;9763;48.780;9.212;2022-08-05T04:19:53;28.40;43.90
19258;DHT22;9763;48.780;9.212;2022-08-05T04:23:22;28.30;43.30
19258;DHT22;9763;48.780;9.212;2022-08-05T04:27:08;28.40;44.20
19258;DHT22;9763;48.780;9.212;2022-08-05T04:30:33;28.40;44.30
19258;DHT22;9763;48.780;9.212;2022-08-05T04:33:57;28.40;43.80
19258;DHT22;9763;48.780;9.212;2022-08-05T04:37:41;28.50;44.30
19258;DHT22;9763;48.780;9.212;2022-08-05T04:48:25;26.50;42.80
19258;DHT22;9763;48.780;9.212;2022-08-05T04:51:49;28.60;44.00
19258;DHT22;9763;48.780;9.212;2022-08-05T04:59:05;28.60;44.20
19258;DHT22;9763;48.780;9.212;2022-08-05T05:02:51;28.50;44.10
19258;DHT22;9763;48.780;9.212;2022-08-05T05:17:04;28.20;45.00
19258;DHT22;9763;48.780;9.212;2022-08-05T05:20:32;28.20;45.80
19258;DHT22;9763;48.780;9.212;2022-08-05T05:23:55;28.40;47.10
19258;DHT22;9763;48.780;9.212;2022-08-05T05:27:31;28.70;47.60
19258;DHT22;9763;48.780;9.212;2022-08-05T05:31:07;29.10;47.80
19258;DHT22;9763;48.780;9.212;2022-08-05T05:34:30;29.70;47.70
19258;DHT22;9763;48.780;9.212;2022-08-05T05:37:58;30.10;47.30
19258;DHT22;9763;48.780;9.212;2022-08-05T05:41:23;31.00;45.80
19258;DHT22;9763;48.780;9.212;2022-08-05T05:45:02;31.00;46.40
19258;DHT22;9763;48.780;9.212;2022-08-05T05:48:26;31.40;46.00
19258;DHT22;9763;48.780;9.212;2022-08-05T05:51:52;31.80;45.60
19258;DHT22;9763;48.780;9.212;2022-08-05T05:55:17;32.10;45.30
19258;DHT22;9763;48.780;9.212;2022-08-05T05:58:42;32.40;44.90
19258;DHT22;9763;48.780;9.212;2022-08-05T06:02:06;32.90;43.70
19258;DHT22;9763;48.780;9.212;2022-08-05T06:05:30;33.00;44.40
19258;DHT22;9763;48.780;9.212;2022-08-05T06:08:54;33.30;44.70
19258;DHT22;9763;48.780;9.212;2022-08-05T06:12:19;33.80;44.50
19258;DHT22;9763;48.780;9.212;2022-08-05T06:15:48;34.70;42.90
19258;DHT22;9763;48.780;9.212;2022-08-05T06:22:57;35.10;42.30
19258;DHT22;9763;48.780;9.212;2022-08-05T06:26:25;35.30;40.50
19258;DHT22;9763;48.780;9.212;2022-08-05T06:29:56;35.30;40.40
19258;DHT22;9763;48.780;9.212;2022-08-05T06:33:39;35.30;40.90
19258;DHT22;9763;48.780;9.212;2022-08-05T06:37:22;35.50;40.70
19258;DHT22;9763;48.780;9.212;2022-08-05T06:41:07;36.40;41.10
19258;DHT22;9763;48.780;9.212;2022-08-05T06:44:32;36.40;41.60
19258;DHT22;9763;48.780;9.212;2022-08-05T06:47:57;37.60;40.60
19258;DHT22;9763;48.780;9.212;2022-08-05T06:51:41;38.20;39.80
19258;DHT22;9763;48.780;9.212;2022-08-05T06:55:05;38.20;40.20
19258;DHT22;9763;48.780;9.212;2022-08-05T06:58:30;38.90;39.80
19258;DHT22;9763;48.780;9.212;2022-08-05T07:01:57;39.70;36.70
19258;DHT22;9763;48.780;9.212;2022-08-05T07:05:22;39.90;35.90
19258;DHT22;9763;48.780;9.212;2022-08-05T07:08:59;39.90;35.40
19258;DHT22;9763;48.780;9.212;2022-08-05T07:27:22;39.80;33.80
19258;DHT22;9763;48.780;9.212;2022-08-05T07:30:48;39.80;34.00
19258;DHT22;9763;48.780;9.212;2022-08-05T07:34:16;39.80;34.00
19258;DHT22;9763;48.780;9.212;2022-08-05T07:37:49;39.90;34.00
19258;DHT22;9763;48.780;9.212;2022-08-05T07:41:17;40.10;32.90
19258;DHT22;9763;48.780;9.212;2022-08-05T07:52:14;40.40;32.70
19258;DHT22;9763;48.780;9.212;2022-08-05T07:55:39;40.80;32.50
19258;DHT22;9763;48.780;9.212;2022-08-05T07:59:24;41.00;32.40
19258;DHT22;9763;48.780;9.212;2022-08-05T08:03:01;41.30;32.30
19258;DHT22;9763;48.780;9.212;2022-08-05T08:06:36;41.60;32.10
19258;DHT22;9763;48.780;9.212;2022-08-05T08:13:27;42.20;31.10
19258;DHT22;9763;48.780;9.212;2022-08-05T08:20:36;42.70;30.10
19258;DHT22;9763;48.780;9.212;2022-08-05T08:24:20;42.90;30.00
19258;DHT22;9763;48.780;9.212;2022-08-05T08:28:04;43.20;29.60
19258;DHT22;9763;48.780;9.212;2022-08-05T08:31:39;43.40;29.10
19258;DHT22;9763;48.780;9.212;2022-08-05T08:35:07;43.50;28.10
19258;DHT22;9763;48.780;9.212;2022-08-05T08:38:34;43.30;27.90
19258;DHT22;9763;48.780;9.212;2022-08-05T08:42:00;43.20;28.10
19258;DHT22;9763;48.780;9.212;2022-08-05T08:45:32;43.20;27.90
19258;DHT22;9763;48.780;9.212;2022-08-05T08:49:02;43.00;27.70
19258;DHT22;9763;48.780;9.212;2022-08-05T08:52:52;43.00;28.00
19258;DHT22;9763;48.780;9.212;2022-08-05T08:56:19;43.10;28.20
19258;DHT22;9763;48.780;9.212;2022-08-05T08:59:49;43.30;28.10
19258;DHT22;9763;48.780;9.212;2022-08-05T09:06:40;43.50;27.40
19258;DHT22;9763;48.780;9.212;2022-08-05T09:10:06;43.60;27.50
19258;DHT22;9763;48.780;9.212;2022-08-05T09:17:15;44.00;26.50
19258;DHT22;9763;48.780;9.212;2022-08-05T09:24:22;43.80;25.70
19258;DHT22;9763;48.780;9.212;2022-08-05T09:27:49;43.50;26.00
19258;DHT22;9763;48.780;9.212;2022-08-05T09:31:27;43.50;26.60
19258;DHT22;9763;48.780;9.212;2022-08-05T09:35:12;43.60;26.70
19258;DHT22;9763;48.780;9.212;2022-08-05T09:38:55;43.80;26.70
19258;DHT22;9763;48.780;9.212;2022-08-05T09:42:21;44.10;26.60
19258;DHT22;9763;48.780;9.212;2022-08-05T09:45:50;44.20;26.30
19258;DHT22;9763;48.780;9.212;2022-08-05T09:49:29;44.40;26.10
19258;DHT22;9763;48.780;9.212;2022-08-05T09:53:13;44.50;25.80
19258;DHT22;9763;48.780;9.212;2022-08-05T09:56:51;44.50;25.30
19258;DHT22;9763;48.780;9.212;2022-08-05T10:00:17;44.50;25.40
19258;DHT22;9763;48.780;9.212;2022-08-05T10:03:55;44.50;25.50
19258;DHT22;9763;48.780;9.212;2022-08-05T10:07:21;44.50;25.60
19258;DHT22;9763;48.780;9.212;2022-08-05T10:11:13;44.60;25.50
19258;DHT22;9763;48.780;9.212;2022-08-05T10:14:38;44.80;25.50
19258;DHT22;9763;48.780;9.212;2022-08-05T10:18:11;44.90;25.50
19258;DHT22;9763;48.780;9.212;2022-08-05T10:21:39;45.10;25.30
19258;DHT22;9763;48.780;9.212;2022-08-05T10:25:04;41.20;23.10
19258;DHT22;9763;48.780;9.212;2022-08-05T10:28:29;45.40;25.10
19258;DHT22;9763;48.780;9.212;2022-08-05T10:31:57;45.40;25.00
19258;DHT22;9763;48.780;9.212;2022-08-05T10:35:41;45.60;24.80
19258;DHT22;9763;48.780;9.212;2022-08-05T10:39:11;45.60;24.70
19258;DHT22;9763;48.780;9.212;2022-08-05T10:43:03;45.60;24.40
19258;DHT22;9763;48.780;9.212;2022-08-05T10:46:44;45.60;24.20
19258;DHT22;9763;48.780;9.212;2022-08-05T10:50:15;45.50;24.10
19258;DHT22;9763;48.780;9.212;2022-08-05T10:53:58;45.50;24.30
19258;DHT22;9763;48.780;9.212;2022-08-05T10:57:45;45.50;23.80
19258;DHT22;9763;48.780;9.212;2022-08-05T11:04:42;45.30;23.80
19258;DHT22;9763;48.780;9.212;2022-08-05T11:08:07;45.20;23.80
19258;DHT22;9763;48.780;9.212;2022-08-05T11:11:52;45.20;23.80
19258;DHT22;9763;48.780;9.212;2022-08-05T11:15:22;45.10;23.70
19258;DHT22;9763;48.780;9.212;2022-08-05T11:19:26;45.20;24.00
19258;DHT22;9763;48.780;9.212;2022-08-05T11:23:28;45.30;23.70
19258;DHT22;9763;48.780;9.212;2022-08-05T11:27:30;45.30;23.60
19258;DHT22;9763;48.780;9.212;2022-08-05T11:39:49;45.30;23.90
19258;DHT22;9763;48.780;9.212;2022-08-05T11:43:24;45.40;23.80
19258;DHT22;9763;48.780;9.212;2022-08-05T11:47:09;45.30;23.40
19258;DHT22;9763;48.780;9.212;2022-08-05T11:50:39;45.20;23.40
19258;DHT22;9763;48.780;9.212;2022-08-05T11:54:04;45.30;23.90
19258;DHT22;9763;48.780;9.212;2022-08-05T11:57:29;44.90;23.10
19258;DHT22;9763;48.780;9.212;2022-08-05T12:01:15;44.60;22.90
19258;DHT22;9763;48.780;9.212;2022-08-05T12:04:43;44.10;22.60
19258;DHT22;9763;48.780;9.212;2022-08-05T12:08:20;43.40;22.50
19258;DHT22;9763;48.780;9.212;2022-08-05T12:11:46;42.80;23.10
19258;DHT22;9763;48.780;9.212;2022-08-05T12:15:18;42.40;23.60
19258;DHT22;9763;48.780;9.212;2022-08-05T12:18:59;42.10;23.80
19258;DHT22;9763;48.780;9.212;2022-08-05T12:25:54;41.60;24.20
19258;DHT22;9763;48.780;9.212;2022-08-05T12:29:19;41.30;24.30
19258;DHT22;9763;48.780;9.212;2022-08-05T12:32:45;41.00;24.20
19258;DHT22;9763;48.780;9.212;2022-08-05T12:36:12;40.70;24.30
19258;DHT22;9763;48.780;9.212;2022-08-05T12:39:39;40.30;24.50
19258;DHT22;9763;48.780;9.212;2022-08-05T12:43:05;40.00;24.60
19258;DHT22;9763;48.780;9.212;2022-08-05T12:49:57;39.30;24.80
19258;DHT22;9763;48.780;9.212;2022-08-05T12:57:00;38.80;25.30
19258;DHT22;9763;48.780;9.212;2022-08-05T13:04:16;38.40;25.70
19258;DHT22;9763;48.780;9.212;2022-08-05T13:36:24;37.70;27.30
19258;DHT22;9763;48.780;9.212;2022-08-05T13:39:48;37.60;27.30
19258;DHT22;9763;48.780;9.212;2022-08-05T13:51:05;37.70;27.70
19258;DHT22;9763;48.780;9.212;2022-08-05T13:54:30;37.80;27.60
19258;DHT22;9763;48.780;9.212;2022-08-05T14:01:18;37.70;27.50
19258;DHT22;9763;48.780;9.212;2022-08-05T14:08:34;37.90;27.50
19258;DHT22;9763;48.780;9.212;2022-08-05T14:12:00;37.90;27.50
19258;DHT22;9763;48.780;9.212;2022-08-05T14:26:13;38.00;27.40
19258;DHT22;9763;48.780;9.212;2022-08-05T14:33:20;37.70;27.20
19258;DHT22;9763;48.780;9.212;2022-08-05T14:47:23;37.10;27.30
19258;DHT22;9763;48.780;9.212;2022-08-05T15:15:48;35.90;28.80
19258;DHT22;9763;48.780;9.212;2022-08-05T15:19:18;35.40;31.60
19258;DHT22;9763;48.780;9.212;2022-08-05T15:22:45;35.30;33.00
19258;DHT22;9763;48.780;9.212;2022-08-05T15:26:15;35.10;35.10
19258;DHT22;9763;48.780;9.212;2022-08-05T15:29:53;34.60;38.80
19258;DHT22;9763;48.780;9.212;2022-08-05T15:33:18;34.00;38.80
19258;DHT22;9763;48.780;9.212;2022-08-05T15:37:03;33.00;41.00
19258;DHT22;9763;48.780;9.212;2022-08-05T15:44:19;32.30;39.70
19258;DHT22;9763;48.780;9.212;2022-08-05T15:47:44;32.30;39.90
19258;DHT22;9763;48.780;9.212;2022-08-05T15:51:08;32.30;40.20
19258;DHT22;9763;48.780;9.212;2022-08-05T15:54:33;32.30;40.90
19258;DHT22;9763;48.780;9.212;2022-08-05T15:57:58;32.40;40.90
19258;DHT22;9763;48.780;9.212;2022-08-05T16:01:23;32.40;39.70
19258;DHT22;9763;48.780;9.212;2022-08-05T16:05:00;32.40;40.00
19258;DHT22;9763;48.780;9.212;2022-08-05T16:08:26;32.40;39.80
19258;DHT22;9763;48.780;9.212;2022-08-05T16:11:53;32.40;40.60
19258;DHT22;9763;48.780;9.212;2022-08-05T16:15:17;32.40;41.30
19258;DHT22;9763;48.780;9.212;2022-08-05T16:18:42;32.30;40.70
19258;DHT22;9763;48.780;9.212;2022-08-05T16:22:13;32.10;40.30
19258;DHT22;9763;48.780;9.212;2022-08-05T16:25:37;32.10;40.70
19258;DHT22;9763;48.780;9.212;2022-08-05T16:29:03;32.10;41.40
19258;DHT22;9763;48.780;9.212;2022-08-05T16:32:29;32.00;40.60
19258;DHT22;9763;48.780;9.212;2022-08-05T16:35:53;32.00;40.80
19258;DHT22;9763;48.780;9.212;2022-08-05T16:39:18;31.90;41.70
19258;DHT22;9763;48.780;9.212;2022-08-05T16:46:12;31.80;41.00
19258;DHT22;9763;48.780;9.212;2022-08-05T16:49:45;31.70;41.20
19258;DHT22;9763;48.780;9.212;2022-08-05T16:53:14;31.70;41.10
19258;DHT22;9763;48.780;9.212;2022-08-05T16:56:53;31.80;41.40
19258;DHT22;9763;48.780;9.212;2022-08-05T17:00:17;31.70;40.40
19258;DHT22;9763;48.780;9.212;2022-08-05T17:04:00;31.60;40.40
19258;DHT22;9763;48.780;9.212;2022-08-05T17:18:01;31.50;40.10
19258;DHT22;9763;48.780;9.212;2022-08-05T17:21:26;31.40;40.60
19258;DHT22;9763;48.780;9.212;2022-08-05T17:24:58;31.40;40.80
19258;DHT22;9763;48.780;9.212;2022-08-05T17:28:22;31.30;40.50
19258;DHT22;9763;48.780;9.212;2022-08-05T17:35:19;31.10;40.50
19258;DHT22;9763;48.780;9.212;2022-08-05T17:38:45;31.10;40.40
19258;DHT22;9763;48.780;9.212;2022-08-05T17:49:16;31.10;40.10
19258;DHT22;9763;48.780;9.212;2022-08-05T17:52:44;31.00;40.20
19258;DHT22;9763;48.780;9.212;2022-08-05T17:56:17;30.90;40.80
19258;DHT22;9763;48.780;9.212;2022-08-05T17:59:43;30.90;41.50
19258;DHT22;9763;48.780;9.212;2022-08-05T18:03:25;30.80;42.10
19258;DHT22;9763;48.780;9.212;2022-08-05T18:07:09;30.70;42.20
19258;DHT22;9763;48.780;9.212;2022-08-05T18:10:34;30.50;42.10
19258;DHT22;9763;48.780;9.212;2022-08-05T18:14:03;30.50;42.30
19258;DHT22;9763;48.780;9.212;2022-08-05T18:17:28;30.40;42.90
19258;DHT22;9763;48.780;9.212;2022-08-05T18:21:11;30.40;43.00
19258;DHT22;9763;48.780;9.212;2022-08-05T18:24:44;30.40;43.20
19258;DHT22;9763;48.780;9.212;2022-08-05T18:28:07;30.30;44.10
19258;DHT22;9763;48.780;9.212;2022-08-05T18:31:32;30.20;44.50
19258;DHT22;9763;48.780;9.212;2022-08-05T18:34:57;30.10;45.40
19258;DHT22;9763;48.780;9.212;2022-08-05T18:38:22;29.90;45.20
19258;DHT22;9763;48.780;9.212;2022-08-05T18:41:47;29.70;45.20
19258;DHT22;9763;48.780;9.212;2022-08-05T18:45:22;29.60;46.00
19258;DHT22;9763;48.780;9.212;2022-08-05T18:49:04;29.40;46.30
19258;DHT22;9763;48.780;9.212;2022-08-05T18:52:41;29.30;46.00
19258;DHT22;9763;48.780;9.212;2022-08-05T18:56:12;29.20;46.00
19258;DHT22;9763;48.780;9.212;2022-08-05T18:59:36;29.20;47.40
19258;DHT22;9763;48.780;9.212;2022-08-05T19:03:19;29.10;47.10
19258;DHT22;9763;48.780;9.212;2022-08-05T19:07:04;28.90;47.60
19258;DHT22;9763;48.780;9.212;2022-08-05T19:10:29;28.80;47.20
19258;DHT22;9763;48.780;9.212;2022-08-05T19:13:58;28.70;47.10
19258;DHT22;9763;48.780;9.212;2022-08-05T19:17:42;28.70;47.50
19258;DHT22;9763;48.780;9.212;2022-08-05T19:21:25;28.60;47.40
19258;DHT22;9763;48.780;9.212;2022-08-05T19:24:57;28.50;47.20
19258;DHT22;9763;48.780;9.212;2022-08-05T19:28:23;31.20;49.30
19258;DHT22;9763;48.780;9.212;2022-08-05T19:31:48;28.40;47.70
19258;DHT22;9763;48.780;9.212;2022-08-05T19:35:12;28.40;48.10
19258;DHT22;9763;48.780;9.212;2022-08-05T19:38:36;28.20;48.10
19258;DHT22;9763;48.780;9.212;2022-08-05T19:42:04;28.10;48.30
19258;DHT22;9763;48.780;9.212;2022-08-05T19:45:30;28.10;48.10
19258;DHT22;9763;48.780;9.212;2022-08-05T19:48:58;28.00;48.10
19258;DHT22;9763;48.780;9.212;2022-08-05T19:52:25;28.00;48.30
19258;DHT22;9763;48.780;9.212;2022-08-05T19:56:01;28.00;48.10
19258;DHT22;9763;48.780;9.212;2022-08-05T19:59:43;27.90;48.20
19258;DHT22;9763;48.780;9.212;2022-08-05T20:03:32;27.90;48.40
19258;DHT22;9763;48.780;9.212;2022-08-05T20:07:02;27.80;48.10
19258;DHT22;9763;48.780;9.212;2022-08-05T20:10:36;27.70;48.00
19258;DHT22;9763;48.780;9.212;2022-08-05T20:14:04;27.60;48.10
19258;DHT22;9763;48.780;9.212;2022-08-05T20:17:36;27.50;49.20
19258;DHT22;9763;48.780;9.212;2022-08-05T20:21:00;27.40;49.80
19258;DHT22;9763;48.780;9.212;2022-08-05T20:24:26;27.20;49.70
19258;DHT22;9763;48.780;9.212;2022-08-05T20:27:50;27.00;49.90
19258;DHT22;9763;48.780;9.212;2022-08-05T20:31:13;26.90;50.40
19258;DHT22;9763;48.780;9.212;2022-08-05T20:34:39;26.70;49.90
19258;DHT22;9763;48.780;9.212;2022-08-05T20:38:03;26.60;50.10
19258;DHT22;9763;48.780;9.212;2022-08-05T20:41:29;26.50;50.40
19258;DHT22;9763;48.780;9.212;2022-08-05T20:45:07;26.40;51.00
19258;DHT22;9763;48.780;9.212;2022-08-05T20:48:31;26.40;51.00
19258;DHT22;9763;48.780;9.212;2022-08-05T20:51:59;26.20;51.10
19258;DHT22;9763;48.780;9.212;2022-08-05T20:55:22;26.20;51.80
19258;DHT22;9763;48.780;9.212;2022-08-05T20:59:06;26.10;51.90
19258;DHT22;9763;48.780;9.212;2022-08-05T21:02:40;26.00;52.00
19258;DHT22;9763;48.780;9.212;2022-08-05T21:06:14;25.90;51.80
19258;DHT22;9763;48.780;9.212;2022-08-05T21:09:53;25.80;52.10
19258;DHT22;9763;48.780;9.212;2022-08-05T21:13:19;25.80;52.60
19258;DHT22;9763;48.780;9.212;2022-08-05T21:17:03;25.70;52.30
19258;DHT22;9763;48.780;9.212;2022-08-05T21:20:27;25.60;52.40
19258;DHT22;9763;48.780;9.212;2022-08-05T21:23:54;25.60;52.30
19258;DHT22;9763;48.780;9.212;2022-08-05T21:27:19;25.60;52.40
19258;DHT22;9763;48.780;9.212;2022-08-05T21:30:48;25.60;52.50
19258;DHT22;9763;48.780;9.212;2022-08-05T21:34:12;25.60;52.30
19258;DHT22;9763;48.780;9.212;2022-08-05T21:37:36;25.60;52.50
19258;DHT22;9763;48.780;9.212;2022-08-05T21:41:02;25.60;52.30
19258;DHT22;9763;48.780;9.212;2022-08-05T21:44:28;25.60;52.60
19258;DHT22;9763;48.780;9.212;2022-08-05T21:47:53;25.60;52.70
19258;DHT22;9763;48.780;9.212;2022-08-05T21:51:19;25.60;52.60
19258;DHT22;9763;48.780;9.212;2022-08-05T21:55:03;25.60;52.60
19258;DHT22;9763;48.780;9.212;2022-08-05T21:58:28;25.60;52.40
19258;DHT22;9763;48.780;9.212;2022-08-05T22:01:54;25.60;52.20
19258;DHT22;9763;48.780;9.212;2022-08-05T22:05:18;25.70;52.10
19258;DHT22;9763;48.780;9.212;2022-08-05T22:08:48;25.80;51.70
19258;DHT22;9763;48.780;9.212;2022-08-05T22:12:13;25.90;51.30
19258;DHT22;9763;48.780;9.212;2022-08-05T22:15:38;26.00;51.10
19258;DHT22;9763;48.780;9.212;2022-08-05T22:19:23;26.00;50.80
19258;DHT22;9763;48.780;9.212;2022-08-05T22:23:06;26.10;50.60
19258;DHT22;9763;48.780;9.212;2022-08-05T22:27:08;26.20;50.50
19258;DHT22;9763;48.780;9.212;2022-08-05T22:31:09;26.20;50.10
19258;DHT22;9763;48.780;9.212;2022-08-05T22:34:34;26.20;49.90
19258;DHT22;9763;48.780;9.212;2022-08-05T22:37:57;26.20;50.40
19258;DHT22;9763;48.780;9.212;2022-08-05T22:41:21;26.20;49.50
19258;DHT22;9763;48.780;9.212;2022-08-05T22:45:06;26.20;49.30
19258;DHT22;9763;48.780;9.212;2022-08-05T22:48:31;26.10;49.00
19258;DHT22;9763;48.780;9.212;2022-08-05T22:51:57;26.10;49.50
19258;DHT22;9763;48.780;9.212;2022-08-05T22:55:36;26.00;48.60
19258;DHT22;9763;48.780;9.212;2022-08-05T22:59:18;26.00;48.40
19258;DHT22;9763;48.780;9.212;2022-08-05T23:03:02;26.00;48.30
19258;DHT22;9763;48.780;9.212;2022-08-05T23:06:25;25.90;48.10
19258;DHT22;9763;48.780;9.212;2022-08-05T23:09:51;25.80;48.00
19258;DHT22;9763;48.780;9.212;2022-08-05T23:13:23;25.80;48.00
19258;DHT22;9763;48.780;9.212;2022-08-05T23:16:46;25.80;47.90
19258;DHT22;9763;48.780;9.212;2022-08-05T23:20:29;25.80;47.80
19258;DHT22;9763;48.780;9.212;2022-08-05T23:23:58;25.80;47.70
19258;DHT22;9763;48.780;9.212;2022-08-05T23:27:33;25.80;47.70
19258;DHT22;9763;48.780;9.212;2022-08-05T23:31:17;25.80;47.60
19258;DHT22;9763;48.780;9.212;2022-08-05T23:34:40;25.80;47.50
19258;DHT22;9763;48.780;9.212;2022-08-05T23:38:04;25.80;47.40
19258;DHT22;9763;48.780;9.212;2022-08-05T23:41:33;25.90;47.30
19258;DHT22;9763;48.780;9.212;2022-08-05T23:45:04;25.90;47.30
19258;DHT22;9763;48.780;9.212;2022-08-05T23:48:36;25.90;47.20
19258;DHT22;9763;48.780;9.212;2022-08-05T23:52:03;26.00;47.10
19258;DHT22;9763;48.780;9.212;2022-08-05T23:55:46;26.00;47.10
19258;DHT22;9763;48.780;9.212;2022-08-05T23:59:11;25.90;47.00
